createdAt,value
2022-11-17T00:00:50.727Z,11.30
2022-11-17T00:05:52.365Z,11.30
2022-11-17T00:10:54.058Z,11.40
2022-11-17T00:15:55.742Z,11.30
2022-11-17T00:21:16.208Z,11.40
2022-11-17T00:26:19.083Z,11.40
2022-11-17T00:31:40.400Z,11.40
2022-11-17T00:36:45.748Z,11.40
2022-11-17T00:41:47.897Z,11.40
2022-11-17T00:46:49.940Z,11.40
2022-11-17T00:51:52.713Z,11.40
2022-11-17T00:56:54.726Z,11.40
2022-11-17T01:01:56.393Z,11.40
2022-11-17T01:06:58.056Z,11.40
2022-11-17T01:11:59.881Z,11.50
2022-11-17T01:17:01.567Z,11.40
2022-11-17T01:22:03.872Z,11.40
2022-11-17T01:27:05.535Z,11.40
2022-11-17T01:32:07.243Z,11.40
2022-11-17T01:37:21.175Z,11.50
2022-11-17T01:42:25.780Z,11.40
2022-11-17T01:47:42.503Z,11.30
2022-11-17T01:52:44.939Z,11.20
2022-11-17T01:58:10.460Z,11.10
2022-11-17T02:03:13.493Z,11.10
2022-11-17T02:08:16.997Z,11.00
2022-11-17T02:13:20.325Z,10.90
2022-11-17T02:18:22.132Z,10.90
2022-11-17T02:23:35.707Z,10.80
2022-11-17T02:28:50.307Z,10.80
2022-11-17T02:34:10.879Z,10.70
2022-11-17T02:39:18.549Z,10.70
2022-11-17T02:44:33.246Z,10.70
2022-11-17T02:49:38.004Z,10.60
2022-11-17T02:54:39.743Z,10.60
2022-11-17T02:59:47.655Z,10.60
2022-11-17T03:05:07.987Z,10.60
2022-11-17T03:10:20.877Z,10.50
2022-11-17T03:15:44.731Z,10.50
2022-11-17T03:21:08.382Z,10.40
2022-11-17T03:26:15.307Z,10.40
2022-11-17T03:31:19.106Z,10.40
2022-11-17T03:36:25.737Z,10.40
2022-11-17T03:41:31.516Z,10.50
2022-11-17T03:46:36.256Z,10.50
2022-11-17T03:51:38.294Z,10.50
2022-11-17T03:56:43.218Z,10.50
2022-11-17T04:01:45.216Z,10.60
2022-11-17T04:06:48.208Z,10.50
2022-11-17T04:12:08.360Z,10.50
2022-11-17T04:17:10.027Z,10.50
2022-11-17T04:22:14.829Z,10.50
2022-11-17T04:27:34.986Z,10.50
2022-11-17T04:32:36.708Z,10.50
2022-11-17T04:37:38.352Z,10.50
2022-11-17T04:42:40.061Z,10.50
2022-11-17T04:47:41.723Z,10.50
2022-11-17T04:52:43.486Z,10.40
2022-11-17T04:57:45.182Z,10.40
2022-11-17T05:02:46.871Z,10.40
2022-11-17T05:07:48.503Z,10.30
2022-11-17T05:13:08.699Z,10.40
2022-11-17T05:18:10.438Z,10.40
2022-11-17T05:23:30.515Z,10.40
2022-11-17T05:28:32.147Z,10.40
2022-11-17T05:33:37.757Z,10.40
2022-11-17T05:38:40.268Z,10.50
2022-11-17T05:43:42.239Z,10.50
2022-11-17T05:48:44.760Z,10.60
2022-11-17T05:53:46.792Z,10.60
2022-11-17T05:59:11.517Z,10.70
2022-11-17T06:04:17.275Z,10.70
2022-11-17T06:09:19.352Z,10.70
2022-11-17T06:14:21.059Z,10.80
2022-11-17T06:19:27.796Z,10.80
2022-11-17T06:24:29.546Z,10.80
2022-11-17T06:29:31.865Z,10.80
2022-11-17T06:34:34.898Z,10.80
2022-11-17T06:39:36.558Z,10.80
2022-11-17T06:44:38.233Z,10.80
2022-11-17T06:49:39.938Z,10.80
2022-11-17T06:54:41.590Z,10.80
2022-11-17T06:59:43.286Z,10.80
2022-11-17T07:04:44.966Z,10.80
2022-11-17T07:09:46.750Z,10.80
2022-11-17T07:14:48.516Z,10.80
2022-11-17T07:19:50.181Z,10.70
2022-11-17T07:24:51.910Z,10.70
2022-11-17T07:29:53.642Z,10.70
2022-11-17T07:34:55.400Z,10.70
2022-11-17T07:39:57.069Z,10.70
2022-11-17T07:44:58.733Z,10.70
2022-11-17T07:50:00.966Z,10.70
2022-11-17T07:55:02.714Z,10.70
2022-11-17T08:00:04.886Z,10.70
2022-11-17T08:05:07.074Z,10.70
2022-11-17T08:10:09.061Z,10.70
2022-11-17T08:15:10.813Z,10.70
2022-11-17T08:20:12.754Z,10.70
2022-11-17T08:25:14.869Z,10.70
2022-11-17T08:30:16.653Z,10.70
2022-11-17T08:35:21.223Z,10.80
2022-11-17T08:40:23.045Z,10.80
2022-11-17T08:45:25.198Z,10.80
2022-11-17T08:50:27.104Z,10.90
2022-11-17T08:55:28.895Z,10.90
2022-11-17T09:00:30.596Z,10.90
2022-11-17T09:05:35.243Z,11.00
2022-11-17T09:10:37.885Z,11.00
2022-11-17T09:15:39.611Z,11.00
2022-11-17T09:20:45.430Z,11.10
2022-11-17T09:25:47.441Z,11.10
2022-11-17T09:30:49.124Z,11.10
2022-11-17T09:35:50.833Z,11.10
2022-11-17T09:40:55.124Z,11.10
2022-11-17T09:46:03.150Z,11.20
2022-11-17T09:51:12.768Z,11.20
2022-11-17T09:56:14.831Z,11.30
2022-11-17T10:01:19.206Z,11.30
2022-11-17T10:06:21.965Z,11.40
2022-11-17T10:11:32.089Z,11.40
2022-11-17T10:16:34.013Z,11.50
2022-11-17T10:21:37.754Z,11.60
2022-11-17T10:26:49.578Z,11.70
2022-11-17T10:31:51.259Z,11.70
2022-11-17T10:36:53.062Z,11.70
2022-11-17T10:41:54.835Z,11.80
2022-11-17T10:47:05.470Z,11.80
2022-11-17T10:52:18.238Z,11.80
2022-11-17T10:57:26.645Z,11.80
2022-11-17T11:02:39.781Z,11.90
2022-11-17T11:07:41.965Z,11.90
2022-11-17T11:13:06.693Z,12.00
2022-11-17T11:18:15.509Z,12.00
2022-11-17T11:23:20.894Z,12.00
2022-11-17T11:28:51.296Z,12.10
2022-11-17T11:34:17.455Z,12.20
2022-11-17T11:39:45.785Z,12.20
2022-11-17T11:45:09.148Z,12.20
2022-11-17T11:50:16.010Z,12.30
2022-11-17T11:55:34.765Z,12.30
2022-11-17T12:00:37.377Z,12.40
2022-11-17T12:06:25.530Z,12.40
2022-11-17T12:11:45.965Z,12.40
2022-11-17T12:16:48.445Z,12.50
2022-11-17T12:21:55.361Z,12.40
2022-11-17T12:27:35.459Z,12.60
2022-11-17T12:32:52.119Z,12.60
2022-11-17T12:38:12.832Z,12.60
2022-11-17T12:43:26.526Z,12.70
2022-11-17T12:48:34.687Z,12.80
2022-11-17T12:53:59.789Z,12.90
2022-11-17T12:59:10.557Z,13.00
2022-11-17T13:04:20.621Z,13.10
2022-11-17T13:09:26.869Z,13.10
2022-11-17T13:14:28.590Z,13.10
2022-11-17T13:19:32.794Z,13.00
2022-11-17T13:24:35.789Z,13.00
2022-11-17T13:29:37.870Z,13.10
2022-11-17T13:34:48.192Z,13.20
2022-11-17T13:40:19.775Z,13.20
2022-11-17T13:45:21.657Z,13.30
2022-11-17T13:50:29.422Z,13.30
2022-11-17T13:55:32.041Z,13.20
2022-11-17T14:00:34.376Z,13.20
2022-11-17T14:05:36.091Z,13.40
2022-11-17T14:10:39.130Z,13.30
2022-11-17T14:15:42.643Z,13.20
2022-11-17T14:20:44.434Z,13.10
2022-11-17T14:25:50.047Z,13.10
2022-11-17T14:30:54.978Z,13.00
2022-11-17T14:35:59.186Z,13.00
2022-11-17T14:41:01.073Z,12.90
2022-11-17T14:46:03.382Z,12.90
2022-11-17T14:51:05.291Z,12.80
2022-11-17T14:56:10.818Z,12.80
2022-11-17T15:01:18.141Z,12.70
2022-11-17T15:06:20.571Z,12.60
2022-11-17T15:11:22.974Z,12.60
2022-11-17T15:16:24.742Z,12.50
2022-11-17T15:21:26.398Z,12.40
2022-11-17T15:26:28.028Z,12.30
2022-11-17T15:31:30.158Z,12.30
2022-11-17T15:36:31.995Z,12.20
2022-11-17T15:41:33.727Z,12.20
2022-11-17T15:46:36.161Z,12.20
2022-11-17T15:51:37.922Z,12.10
2022-11-17T15:56:39.649Z,12.10
2022-11-17T16:01:41.509Z,12.10
2022-11-17T16:06:45.678Z,12.00
2022-11-17T16:11:47.707Z,12.00
2022-11-17T16:16:49.654Z,11.90
2022-11-17T16:21:51.430Z,11.80
2022-11-17T16:26:53.114Z,11.90
2022-11-17T16:31:56.146Z,11.60
2022-11-17T16:36:57.910Z,11.60
2022-11-17T16:42:00.220Z,11.50
2022-11-17T16:47:02.011Z,11.50
2022-11-17T16:52:03.691Z,11.40
2022-11-17T16:57:05.345Z,11.30
2022-11-17T17:02:06.990Z,11.20
2022-11-17T17:07:08.737Z,11.20
2022-11-17T17:12:10.514Z,11.10
2022-11-17T17:17:12.169Z,11.10
2022-11-17T17:22:13.864Z,11.10
2022-11-17T17:27:15.618Z,11.10
2022-11-17T17:32:17.253Z,11.10
2022-11-17T17:37:18.903Z,11.20
2022-11-17T17:42:21.579Z,11.10
2022-11-17T17:47:23.248Z,11.10
2022-11-17T17:52:24.904Z,11.10
2022-11-17T17:57:29.863Z,11.10
2022-11-17T18:02:34.523Z,11.10
2022-11-17T18:07:36.503Z,11.10
2022-11-17T18:12:38.188Z,11.00
2022-11-17T18:17:39.892Z,11.00
2022-11-17T18:22:41.669Z,10.90
2022-11-17T18:27:43.305Z,10.80
2022-11-17T18:32:45.044Z,10.80
2022-11-17T18:37:46.656Z,10.80
2022-11-17T18:42:48.321Z,10.70
2022-11-17T18:47:49.971Z,10.60
2022-11-17T18:52:52.058Z,10.60
2022-11-17T18:57:53.833Z,10.50
2022-11-17T19:02:55.465Z,10.40
2022-11-17T19:07:57.627Z,10.40
2022-11-17T19:12:59.291Z,10.30
2022-11-17T19:18:00.857Z,10.30
2022-11-17T19:23:02.477Z,10.20
2022-11-17T19:28:04.563Z,10.20
2022-11-17T19:33:06.181Z,10.10
2022-11-17T19:38:07.815Z,10.10
2022-11-17T19:43:09.432Z,10.00
2022-11-17T19:48:11.162Z,9.90
2022-11-17T19:53:12.801Z,9.90
2022-11-17T19:58:18.444Z,9.80
2022-11-17T20:03:21.178Z,9.80
2022-11-17T20:08:22.817Z,9.80
2022-11-17T20:13:24.461Z,9.80
2022-11-17T20:18:26.506Z,9.70
2022-11-17T20:23:28.211Z,9.70
2022-11-17T20:28:32.929Z,9.70
2022-11-17T20:33:34.673Z,9.80
2022-11-17T20:38:36.393Z,9.70
2022-11-17T20:43:38.125Z,9.70
2022-11-17T20:48:40.785Z,9.70
2022-11-17T20:53:42.597Z,9.70
2022-11-17T20:58:44.751Z,9.80
2022-11-17T21:03:46.820Z,9.70
2022-11-17T21:08:48.792Z,9.80
2022-11-17T21:13:50.447Z,9.80
2022-11-17T21:18:52.462Z,9.70
2022-11-17T21:23:55.033Z,9.80
2022-11-17T21:29:00.481Z,9.80
2022-11-17T21:34:06.644Z,9.70
2022-11-17T21:39:08.326Z,9.70
2022-11-17T21:44:12.164Z,9.70
2022-11-17T21:49:14.284Z,9.70
2022-11-17T21:54:16.381Z,9.70
2022-11-17T21:59:18.352Z,9.70
2022-11-17T22:04:20.229Z,9.70
2022-11-17T22:09:21.975Z,9.60
2022-11-17T22:14:23.708Z,9.60
2022-11-17T22:19:28.247Z,9.60
2022-11-17T22:24:29.943Z,9.50
2022-11-17T22:29:31.540Z,9.40
2022-11-17T22:34:33.402Z,9.30
2022-11-17T22:39:35.088Z,9.30
2022-11-17T22:44:36.754Z,9.20
2022-11-17T22:49:38.406Z,9.10
2022-11-17T22:54:40.202Z,9.10
2022-11-17T22:59:41.859Z,9.10
2022-11-17T23:04:43.567Z,9.10
2022-11-17T23:09:45.193Z,9.10
2022-11-17T23:14:47.909Z,9.20
2022-11-17T23:19:49.592Z,9.20
2022-11-17T23:24:51.311Z,9.20
2022-11-17T23:29:53.530Z,9.20
2022-11-17T23:34:55.237Z,9.20
2022-11-17T23:39:56.893Z,9.20
2022-11-17T23:44:58.713Z,9.20
2022-11-17T23:50:00.428Z,9.20
2022-11-17T23:55:02.133Z,9.20
